sensor_id;sensor_type;location;lat;lon;timestamp;temperature;humidity
16976;DHT22;8604;48.148;-1.786;2023-12-20T00:00:48;7.50;99.90
16976;DHT22;8604;48.148;-1.786;2023-12-20T00:03:16;7.40;99.90
16976;DHT22;8604;48.148;-1.786;2023-12-20T00:05:45;7.40;99.90
16976;DHT22;8604;48.148;-1.786;2023-12-20T00:08:13;7.40;99.90
16976;DHT22;8604;48.148;-1.786;2023-12-20T00:10:42;7.30;99.90
16976;DHT22;8604;48.148;-1.786;2023-12-20T00:13:12;7.30;99.90
16976;DHT22;8604;48.148;-1.786;2023-12-20T00:15:40;7.30;99.90
16976;DHT22;8604;48.148;-1.786;2023-12-20T00:18:09;7.20;99.90
16976;DHT22;8604;48.148;-1.786;2023-12-20T00:20:37;7.20;99.90
16976;DHT22;8604;48.148;-1.786;2023-12-20T00:23:06;7.20;99.90
16976;DHT22;8604;48.148;-1.786;2023-12-20T00:25:34;7.20;99.90
16976;DHT22;8604;48.148;-1.786;2023-12-20T00:28:03;7.20;99.90
16976;DHT22;8604;48.148;-1.786;2023-12-20T00:30:33;7.10;99.90
16976;DHT22;8604;48.148;-1.786;2023-12-20T00:33:02;7.10;99.90
16976;DHT22;8604;48.148;-1.786;2023-12-20T00:35:30;7.00;99.90
16976;DHT22;8604;48.148;-1.786;2023-12-20T00:37:59;7.00;99.90
16976;DHT22;8604;48.148;-1.786;2023-12-20T00:40:27;6.90;99.90
16976;DHT22;8604;48.148;-1.786;2023-12-20T00:42:55;6.90;99.90
16976;DHT22;8604;48.148;-1.786;2023-12-20T00:45:24;6.90;99.90
16976;DHT22;8604;48.148;-1.786;2023-12-20T00:47:53;6.80;99.90
16976;DHT22;8604;48.148;-1.786;2023-12-20T00:50:22;6.80;99.90
16976;DHT22;8604;48.148;-1.786;2023-12-20T00:52:53;6.80;99.90
16976;DHT22;8604;48.148;-1.786;2023-12-20T00:55:23;6.80;99.90
16976;DHT22;8604;48.148;-1.786;2023-12-20T00:57:51;6.70;99.90
16976;DHT22;8604;48.148;-1.786;2023-12-20T01:00:20;6.70;99.90
16976;DHT22;8604;48.148;-1.786;2023-12-20T01:02:49;6.70;99.90
16976;DHT22;8604;48.148;-1.786;2023-12-20T01:05:20;6.60;99.90
16976;DHT22;8604;48.148;-1.786;2023-12-20T01:07:50;6.60;99.90
16976;DHT22;8604;48.148;-1.786;2023-12-20T01:10:19;6.60;99.90
16976;DHT22;8604;48.148;-1.786;2023-12-20T01:12:47;6.60;99.90
16976;DHT22;8604;48.148;-1.786;2023-12-20T01:15:16;6.50;99.90
16976;DHT22;8604;48.148;-1.786;2023-12-20T01:18:03;6.50;99.90
16976;DHT22;8604;48.148;-1.786;2023-12-20T01:20:33;6.60;99.90
16976;DHT22;8604;48.148;-1.786;2023-12-20T01:23:01;6.50;99.90
16976;DHT22;8604;48.148;-1.786;2023-12-20T01:25:29;6.50;99.90
16976;DHT22;8604;48.148;-1.786;2023-12-20T01:27:58;6.50;99.90
16976;DHT22;8604;48.148;-1.786;2023-12-20T01:30:26;6.50;99.90
16976;DHT22;8604;48.148;-1.786;2023-12-20T01:32:55;6.50;99.90
16976;DHT22;8604;48.148;-1.786;2023-12-20T01:35:23;6.50;99.90
16976;DHT22;8604;48.148;-1.786;2023-12-20T01:37:53;6.50;99.90
16976;DHT22;8604;48.148;-1.786;2023-12-20T01:40:23;6.50;99.90
16976;DHT22;8604;48.148;-1.786;2023-12-20T01:42:58;6.50;99.90
16976;DHT22;8604;48.148;-1.786;2023-12-20T01:45:27;6.60;99.90
16976;DHT22;8604;48.148;-1.786;2023-12-20T01:47:57;6.60;99.90
16976;DHT22;8604;48.148;-1.786;2023-12-20T01:50:27;6.60;99.90
16976;DHT22;8604;48.148;-1.786;2023-12-20T01:52:58;6.60;99.90
16976;DHT22;8604;48.148;-1.786;2023-12-20T01:55:29;6.70;99.90
16976;DHT22;8604;48.148;-1.786;2023-12-20T01:57:59;6.70;99.90
16976;DHT22;8604;48.148;-1.786;2023-12-20T02:00:29;6.70;99.90
16976;DHT22;8604;48.148;-1.786;2023-12-20T02:03:01;6.70;99.90
16976;DHT22;8604;48.148;-1.786;2023-12-20T02:05:30;6.70;99.90
16976;DHT22;8604;48.148;-1.786;2023-12-20T02:08:00;6.70;99.90
16976;DHT22;8604;48.148;-1.786;2023-12-20T02:10:30;6.70;99.90
16976;DHT22;8604;48.148;-1.786;2023-12-20T02:12:58;6.70;99.90
16976;DHT22;8604;48.148;-1.786;2023-12-20T02:15:26;6.70;99.90
16976;DHT22;8604;48.148;-1.786;2023-12-20T02:17:55;6.70;99.90
16976;DHT22;8604;48.148;-1.786;2023-12-20T02:20:24;6.70;99.90
16976;DHT22;8604;48.148;-1.786;2023-12-20T02:22:53;6.70;99.90
16976;DHT22;8604;48.148;-1.786;2023-12-20T02:25:22;6.70;99.90
16976;DHT22;8604;48.148;-1.786;2023-12-20T02:27:50;6.70;99.90
16976;DHT22;8604;48.148;-1.786;2023-12-20T02:30:19;6.70;99.90
16976;DHT22;8604;48.148;-1.786;2023-12-20T02:32:48;6.70;99.90
16976;DHT22;8604;48.148;-1.786;2023-12-20T02:35:17;6.70;99.90
16976;DHT22;8604;48.148;-1.786;2023-12-20T02:37:45;6.70;99.90
16976;DHT22;8604;48.148;-1.786;2023-12-20T02:40:15;6.70;99.90
16976;DHT22;8604;48.148;-1.786;2023-12-20T02:42:44;6.60;99.90
16976;DHT22;8604;48.148;-1.786;2023-12-20T02:45:12;6.70;99.90
16976;DHT22;8604;48.148;-1.786;2023-12-20T02:47:41;6.70;99.90
16976;DHT22;8604;48.148;-1.786;2023-12-20T02:50:09;6.60;99.90
16976;DHT22;8604;48.148;-1.786;2023-12-20T02:52:38;6.60;99.90
16976;DHT22;8604;48.148;-1.786;2023-12-20T02:55:06;6.60;99.90
16976;DHT22;8604;48.148;-1.786;2023-12-20T02:57:36;6.60;99.90
16976;DHT22;8604;48.148;-1.786;2023-12-20T03:00:09;6.60;99.90
16976;DHT22;8604;48.148;-1.786;2023-12-20T03:02:38;6.60;99.90
16976;DHT22;8604;48.148;-1.786;2023-12-20T03:05:07;6.50;99.90
16976;DHT22;8604;48.148;-1.786;2023-12-20T03:07:37;6.50;99.90
16976;DHT22;8604;48.148;-1.786;2023-12-20T03:10:06;6.50;99.90
16976;DHT22;8604;48.148;-1.786;2023-12-20T03:12:47;6.50;99.90
16976;DHT22;8604;48.148;-1.786;2023-12-20T03:15:16;6.50;99.90
16976;DHT22;8604;48.148;-1.786;2023-12-20T03:17:44;6.50;99.90
16976;DHT22;8604;48.148;-1.786;2023-12-20T03:20:13;6.50;99.90
16976;DHT22;8604;48.148;-1.786;2023-12-20T03:22:42;6.50;99.90
16976;DHT22;8604;48.148;-1.786;2023-12-20T03:25:11;6.50;99.90
16976;DHT22;8604;48.148;-1.786;2023-12-20T03:27:39;6.50;99.90
16976;DHT22;8604;48.148;-1.786;2023-12-20T03:30:10;6.50;99.90
16976;DHT22;8604;48.148;-1.786;2023-12-20T03:32:38;6.50;99.90
16976;DHT22;8604;48.148;-1.786;2023-12-20T03:35:07;6.50;99.90
16976;DHT22;8604;48.148;-1.786;2023-12-20T03:37:36;6.40;99.90
16976;DHT22;8604;48.148;-1.786;2023-12-20T03:40:05;6.40;99.90
16976;DHT22;8604;48.148;-1.786;2023-12-20T03:42:33;6.40;99.90
16976;DHT22;8604;48.148;-1.786;2023-12-20T03:45:02;6.40;99.90
16976;DHT22;8604;48.148;-1.786;2023-12-20T03:47:31;6.40;99.90
16976;DHT22;8604;48.148;-1.786;2023-12-20T03:50:00;6.40;99.90
16976;DHT22;8604;48.148;-1.786;2023-12-20T03:52:29;6.40;99.90
16976;DHT22;8604;48.148;-1.786;2023-12-20T03:54:58;6.40;99.90
16976;DHT22;8604;48.148;-1.786;2023-12-20T03:57:26;6.40;99.90
16976;DHT22;8604;48.148;-1.786;2023-12-20T03:59:54;6.40;99.90
16976;DHT22;8604;48.148;-1.786;2023-12-20T04:02:23;6.40;99.90
16976;DHT22;8604;48.148;-1.786;2023-12-20T04:04:52;6.40;99.90
16976;DHT22;8604;48.148;-1.786;2023-12-20T04:07:21;6.50;99.90
16976;DHT22;8604;48.148;-1.786;2023-12-20T04:09:49;6.50;99.90
16976;DHT22;8604;48.148;-1.786;2023-12-20T04:12:18;6.50;99.90
16976;DHT22;8604;48.148;-1.786;2023-12-20T04:14:46;6.50;99.90
16976;DHT22;8604;48.148;-1.786;2023-12-20T04:17:15;6.50;99.90
16976;DHT22;8604;48.148;-1.786;2023-12-20T04:19:44;6.50;99.90
16976;DHT22;8604;48.148;-1.786;2023-12-20T04:22:13;6.50;99.90
16976;DHT22;8604;48.148;-1.786;2023-12-20T04:24:42;6.40;99.90
16976;DHT22;8604;48.148;-1.786;2023-12-20T04:27:10;6.40;99.90
16976;DHT22;8604;48.148;-1.786;2023-12-20T04:29:39;6.40;99.90
16976;DHT22;8604;48.148;-1.786;2023-12-20T04:32:07;6.30;99.90
16976;DHT22;8604;48.148;-1.786;2023-12-20T04:34:36;6.30;99.90
16976;DHT22;8604;48.148;-1.786;2023-12-20T04:37:04;6.30;99.90
16976;DHT22;8604;48.148;-1.786;2023-12-20T04:39:34;6.30;99.90
16976;DHT22;8604;48.148;-1.786;2023-12-20T04:42:03;6.30;99.90
16976;DHT22;8604;48.148;-1.786;2023-12-20T04:44:31;6.20;99.90
16976;DHT22;8604;48.148;-1.786;2023-12-20T04:46:59;6.20;99.90
16976;DHT22;8604;48.148;-1.786;2023-12-20T04:49:28;6.20;99.90
16976;DHT22;8604;48.148;-1.786;2023-12-20T04:51:56;6.20;99.90
16976;DHT22;8604;48.148;-1.786;2023-12-20T04:54:25;6.20;99.90
16976;DHT22;8604;48.148;-1.786;2023-12-20T04:56:55;6.20;99.90
16976;DHT22;8604;48.148;-1.786;2023-12-20T04:59:23;6.20;99.90
16976;DHT22;8604;48.148;-1.786;2023-12-20T05:01:52;6.20;99.90
16976;DHT22;8604;48.148;-1.786;2023-12-20T05:04:20;6.20;99.90
16976;DHT22;8604;48.148;-1.786;2023-12-20T05:06:49;6.20;99.90
16976;DHT22;8604;48.148;-1.786;2023-12-20T05:09:17;6.20;99.90
16976;DHT22;8604;48.148;-1.786;2023-12-20T05:11:46;6.20;99.90
16976;DHT22;8604;48.148;-1.786;2023-12-20T05:14:15;6.20;99.90
16976;DHT22;8604;48.148;-1.786;2023-12-20T05:16:44;6.20;99.90
16976;DHT22;8604;48.148;-1.786;2023-12-20T05:19:12;6.20;99.90
16976;DHT22;8604;48.148;-1.786;2023-12-20T05:21:41;6.20;99.90
16976;DHT22;8604;48.148;-1.786;2023-12-20T05:24:09;6.10;99.90
16976;DHT22;8604;48.148;-1.786;2023-12-20T05:26:38;6.10;99.90
16976;DHT22;8604;48.148;-1.786;2023-12-20T05:29:06;6.10;99.90
16976;DHT22;8604;48.148;-1.786;2023-12-20T05:31:36;6.10;99.90
16976;DHT22;8604;48.148;-1.786;2023-12-20T05:34:05;6.10;99.90
16976;DHT22;8604;48.148;-1.786;2023-12-20T05:36:34;6.00;99.90
16976;DHT22;8604;48.148;-1.786;2023-12-20T05:39:03;6.00;99.90
16976;DHT22;8604;48.148;-1.786;2023-12-20T05:41:31;6.00;99.90
16976;DHT22;8604;48.148;-1.786;2023-12-20T05:43:59;6.00;99.90
16976;DHT22;8604;48.148;-1.786;2023-12-20T05:46:28;6.00;99.90
16976;DHT22;8604;48.148;-1.786;2023-12-20T05:48:58;5.90;99.90
16976;DHT22;8604;48.148;-1.786;2023-12-20T05:51:26;5.90;99.90
16976;DHT22;8604;48.148;-1.786;2023-12-20T05:53:54;5.90;99.90
16976;DHT22;8604;48.148;-1.786;2023-12-20T05:56:23;5.90;99.90
16976;DHT22;8604;48.148;-1.786;2023-12-20T05:58:51;5.90;99.90
16976;DHT22;8604;48.148;-1.786;2023-12-20T06:01:19;5.90;99.90
16976;DHT22;8604;48.148;-1.786;2023-12-20T06:03:48;5.90;99.90
16976;DHT22;8604;48.148;-1.786;2023-12-20T06:06:18;5.90;99.90
16976;DHT22;8604;48.148;-1.786;2023-12-20T06:08:46;6.00;99.90
16976;DHT22;8604;48.148;-1.786;2023-12-20T06:11:14;6.00;99.90
16976;DHT22;8604;48.148;-1.786;2023-12-20T06:13:43;6.00;99.90
16976;DHT22;8604;48.148;-1.786;2023-12-20T06:16:11;6.00;99.90
16976;DHT22;8604;48.148;-1.786;2023-12-20T06:18:40;6.10;99.90
16976;DHT22;8604;48.148;-1.786;2023-12-20T06:21:08;6.10;99.90
16976;DHT22;8604;48.148;-1.786;2023-12-20T06:23:41;6.10;99.90
16976;DHT22;8604;48.148;-1.786;2023-12-20T06:26:09;6.20;99.90
16976;DHT22;8604;48.148;-1.786;2023-12-20T06:28:38;6.20;99.90
16976;DHT22;8604;48.148;-1.786;2023-12-20T06:31:08;6.20;99.90
16976;DHT22;8604;48.148;-1.786;2023-12-20T06:33:39;6.20;99.90
16976;DHT22;8604;48.148;-1.786;2023-12-20T06:36:11;6.20;99.90
16976;DHT22;8604;48.148;-1.786;2023-12-20T06:38:41;6.20;99.90
16976;DHT22;8604;48.148;-1.786;2023-12-20T06:41:13;6.10;99.90
16976;DHT22;8604;48.148;-1.786;2023-12-20T06:43:42;6.10;99.90
16976;DHT22;8604;48.148;-1.786;2023-12-20T06:50:29;6.20;99.90
16976;DHT22;8604;48.148;-1.786;2023-12-20T06:53:46;6.20;99.90
16976;DHT22;8604;48.148;-1.786;2023-12-20T07:01:00;6.20;99.90
16976;DHT22;8604;48.148;-1.786;2023-12-20T07:03:40;6.20;99.90
16976;DHT22;8604;48.148;-1.786;2023-12-20T07:06:30;6.20;99.90
16976;DHT22;8604;48.148;-1.786;2023-12-20T07:09:05;6.20;99.90
16976;DHT22;8604;48.148;-1.786;2023-12-20T07:11:37;6.20;99.90
16976;DHT22;8604;48.148;-1.786;2023-12-20T07:15:02;6.20;99.90
16976;DHT22;8604;48.148;-1.786;2023-12-20T07:17:16;6.20;99.90
16976;DHT22;8604;48.148;-1.786;2023-12-20T07:20:16;6.10;99.90
16976;DHT22;8604;48.148;-1.786;2023-12-20T07:23:06;6.10;99.90
16976;DHT22;8604;48.148;-1.786;2023-12-20T07:25:44;6.10;99.90
16976;DHT22;8604;48.148;-1.786;2023-12-20T07:28:38;6.10;99.90
16976;DHT22;8604;48.148;-1.786;2023-12-20T07:31:15;6.10;99.90
16976;DHT22;8604;48.148;-1.786;2023-12-20T07:33:52;6.10;99.90
16976;DHT22;8604;48.148;-1.786;2023-12-20T07:36:43;6.10;99.90
16976;DHT22;8604;48.148;-1.786;2023-12-20T07:39:49;6.10;99.90
16976;DHT22;8604;48.148;-1.786;2023-12-20T07:43:19;6.10;99.90
16976;DHT22;8604;48.148;-1.786;2023-12-20T07:45:57;6.10;99.90
16976;DHT22;8604;48.148;-1.786;2023-12-20T07:49:19;6.10;99.90
16976;DHT22;8604;48.148;-1.786;2023-12-20T07:51:47;6.20;99.90
16976;DHT22;8604;48.148;-1.786;2023-12-20T07:54:17;6.10;99.90
16976;DHT22;8604;48.148;-1.786;2023-12-20T07:56:46;6.20;99.90
16976;DHT22;8604;48.148;-1.786;2023-12-20T07:59:15;6.10;99.90
16976;DHT22;8604;48.148;-1.786;2023-12-20T08:01:56;6.10;99.90
16976;DHT22;8604;48.148;-1.786;2023-12-20T08:04:26;6.10;99.90
16976;DHT22;8604;48.148;-1.786;2023-12-20T08:06:55;6.10;99.90
16976;DHT22;8604;48.148;-1.786;2023-12-20T08:09:23;6.10;99.90
16976;DHT22;8604;48.148;-1.786;2023-12-20T08:11:52;6.10;99.90
16976;DHT22;8604;48.148;-1.786;2023-12-20T08:14:20;6.10;99.90
16976;DHT22;8604;48.148;-1.786;2023-12-20T08:16:49;6.10;99.90
16976;DHT22;8604;48.148;-1.786;2023-12-20T08:19:17;6.10;99.90
16976;DHT22;8604;48.148;-1.786;2023-12-20T08:21:48;6.10;99.90
16976;DHT22;8604;48.148;-1.786;2023-12-20T08:24:16;6.10;99.90
16976;DHT22;8604;48.148;-1.786;2023-12-20T08:26:44;6.10;99.90
16976;DHT22;8604;48.148;-1.786;2023-12-20T08:29:13;6.10;99.90
16976;DHT22;8604;48.148;-1.786;2023-12-20T08:31:42;6.10;99.90
16976;DHT22;8604;48.148;-1.786;2023-12-20T08:34:10;6.10;99.90
16976;DHT22;8604;48.148;-1.786;2023-12-20T08:36:40;6.10;99.90
16976;DHT22;8604;48.148;-1.786;2023-12-20T08:39:13;6.10;99.90
16976;DHT22;8604;48.148;-1.786;2023-12-20T08:41:42;6.20;99.90
16976;DHT22;8604;48.148;-1.786;2023-12-20T08:44:11;6.20;99.90
16976;DHT22;8604;48.148;-1.786;2023-12-20T08:46:41;6.20;99.90
16976;DHT22;8604;48.148;-1.786;2023-12-20T08:49:09;6.30;99.90
16976;DHT22;8604;48.148;-1.786;2023-12-20T08:51:38;6.30;99.90
16976;DHT22;8604;48.148;-1.786;2023-12-20T08:54:13;6.30;99.90
16976;DHT22;8604;48.148;-1.786;2023-12-20T08:56:42;6.30;99.90
16976;DHT22;8604;48.148;-1.786;2023-12-20T08:59:14;6.40;99.90
16976;DHT22;8604;48.148;-1.786;2023-12-20T09:01:42;6.50;99.90
16976;DHT22;8604;48.148;-1.786;2023-12-20T09:04:10;6.60;99.90
16976;DHT22;8604;48.148;-1.786;2023-12-20T09:06:39;6.60;99.90
16976;DHT22;8604;48.148;-1.786;2023-12-20T09:09:07;6.60;99.90
16976;DHT22;8604;48.148;-1.786;2023-12-20T09:11:42;6.60;99.90
16976;DHT22;8604;48.148;-1.786;2023-12-20T09:14:13;6.60;99.90
16976;DHT22;8604;48.148;-1.786;2023-12-20T09:16:41;6.60;99.90
16976;DHT22;8604;48.148;-1.786;2023-12-20T09:19:10;6.70;99.90
16976;DHT22;8604;48.148;-1.786;2023-12-20T09:21:39;6.70;99.90
16976;DHT22;8604;48.148;-1.786;2023-12-20T09:24:08;6.70;99.90
16976;DHT22;8604;48.148;-1.786;2023-12-20T09:26:36;6.70;99.90
16976;DHT22;8604;48.148;-1.786;2023-12-20T09:29:08;6.80;99.90
16976;DHT22;8604;48.148;-1.786;2023-12-20T09:31:37;6.80;99.90
16976;DHT22;8604;48.148;-1.786;2023-12-20T09:34:06;6.90;99.90
16976;DHT22;8604;48.148;-1.786;2023-12-20T09:36:35;6.90;99.90
16976;DHT22;8604;48.148;-1.786;2023-12-20T09:39:13;7.00;99.90
16976;DHT22;8604;48.148;-1.786;2023-12-20T09:41:44;7.10;99.90
16976;DHT22;8604;48.148;-1.786;2023-12-20T09:44:16;7.10;99.90
16976;DHT22;8604;48.148;-1.786;2023-12-20T09:46:47;7.20;99.90
16976;DHT22;8604;48.148;-1.786;2023-12-20T09:49:18;7.20;99.90
16976;DHT22;8604;48.148;-1.786;2023-12-20T09:51:53;7.20;99.90
16976;DHT22;8604;48.148;-1.786;2023-12-20T09:54:36;7.30;99.90
16976;DHT22;8604;48.148;-1.786;2023-12-20T09:57:04;7.30;99.90
16976;DHT22;8604;48.148;-1.786;2023-12-20T09:59:34;7.30;99.90
16976;DHT22;8604;48.148;-1.786;2023-12-20T10:02:05;7.30;99.90
16976;DHT22;8604;48.148;-1.786;2023-12-20T10:04:37;7.40;99.90
16976;DHT22;8604;48.148;-1.786;2023-12-20T10:07:06;7.40;99.90
16976;DHT22;8604;48.148;-1.786;2023-12-20T10:09:34;7.50;99.90
16976;DHT22;8604;48.148;-1.786;2023-12-20T10:12:04;7.50;99.90
16976;DHT22;8604;48.148;-1.786;2023-12-20T10:14:34;7.60;99.90
16976;DHT22;8604;48.148;-1.786;2023-12-20T10:17:03;7.70;99.90
16976;DHT22;8604;48.148;-1.786;2023-12-20T10:19:32;7.70;99.90
16976;DHT22;8604;48.148;-1.786;2023-12-20T10:22:01;7.80;99.90
16976;DHT22;8604;48.148;-1.786;2023-12-20T10:24:32;7.80;99.90
16976;DHT22;8604;48.148;-1.786;2023-12-20T10:27:02;7.90;99.90
16976;DHT22;8604;48.148;-1.786;2023-12-20T10:29:42;7.90;99.90
16976;DHT22;8604;48.148;-1.786;2023-12-20T10:32:26;8.00;99.90
16976;DHT22;8604;48.148;-1.786;2023-12-20T10:34:55;8.10;99.90
16976;DHT22;8604;48.148;-1.786;2023-12-20T10:37:24;8.10;99.90
16976;DHT22;8604;48.148;-1.786;2023-12-20T10:39:53;8.20;99.90
16976;DHT22;8604;48.148;-1.786;2023-12-20T10:42:26;8.20;99.90
16976;DHT22;8604;48.148;-1.786;2023-12-20T10:44:56;8.30;99.90
16976;DHT22;8604;48.148;-1.786;2023-12-20T10:47:25;8.30;99.90
16976;DHT22;8604;48.148;-1.786;2023-12-20T10:49:54;8.40;99.90
16976;DHT22;8604;48.148;-1.786;2023-12-20T10:52:23;8.40;99.90
16976;DHT22;8604;48.148;-1.786;2023-12-20T10:54:52;8.50;99.90
16976;DHT22;8604;48.148;-1.786;2023-12-20T10:57:22;8.50;99.90
16976;DHT22;8604;48.148;-1.786;2023-12-20T10:59:54;8.50;99.90
16976;DHT22;8604;48.148;-1.786;2023-12-20T11:02:25;8.50;99.90
16976;DHT22;8604;48.148;-1.786;2023-12-20T11:04:58;8.60;99.90
16976;DHT22;8604;48.148;-1.786;2023-12-20T11:07:35;8.60;99.90
16976;DHT22;8604;48.148;-1.786;2023-12-20T11:10:15;8.60;99.90
16976;DHT22;8604;48.148;-1.786;2023-12-20T11:12:51;8.70;99.90
16976;DHT22;8604;48.148;-1.786;2023-12-20T11:15:22;8.70;99.90
16976;DHT22;8604;48.148;-1.786;2023-12-20T11:17:56;8.70;99.90
16976;DHT22;8604;48.148;-1.786;2023-12-20T11:20:35;8.80;99.90
16976;DHT22;8604;48.148;-1.786;2023-12-20T11:23:05;8.80;99.90
16976;DHT22;8604;48.148;-1.786;2023-12-20T11:25:53;8.90;99.90
16976;DHT22;8604;48.148;-1.786;2023-12-20T11:28:23;8.90;99.90
16976;DHT22;8604;48.148;-1.786;2023-12-20T11:30:53;8.90;99.90
16976;DHT22;8604;48.148;-1.786;2023-12-20T11:33:27;9.00;99.90
16976;DHT22;8604;48.148;-1.786;2023-12-20T11:36:00;9.10;99.90
16976;DHT22;8604;48.148;-1.786;2023-12-20T11:38:36;9.10;99.90
16976;DHT22;8604;48.148;-1.786;2023-12-20T11:41:06;9.20;99.90
16976;DHT22;8604;48.148;-1.786;2023-12-20T11:43:36;9.20;99.90
16976;DHT22;8604;48.148;-1.786;2023-12-20T11:46:05;9.30;99.90
16976;DHT22;8604;48.148;-1.786;2023-12-20T11:48:37;9.30;99.90
16976;DHT22;8604;48.148;-1.786;2023-12-20T11:51:10;9.40;99.90
16976;DHT22;8604;48.148;-1.786;2023-12-20T11:53:38;9.40;99.90
16976;DHT22;8604;48.148;-1.786;2023-12-20T11:56:08;9.40;99.90
16976;DHT22;8604;48.148;-1.786;2023-12-20T11:58:37;9.40;99.90
16976;DHT22;8604;48.148;-1.786;2023-12-20T12:01:05;9.50;99.90
16976;DHT22;8604;48.148;-1.786;2023-12-20T12:03:37;9.60;99.90
16976;DHT22;8604;48.148;-1.786;2023-12-20T12:06:06;9.80;99.90
16976;DHT22;8604;48.148;-1.786;2023-12-20T12:08:35;9.80;99.90
16976;DHT22;8604;48.148;-1.786;2023-12-20T12:11:05;9.90;99.90
16976;DHT22;8604;48.148;-1.786;2023-12-20T12:13:33;9.90;99.90
16976;DHT22;8604;48.148;-1.786;2023-12-20T12:16:03;10.10;99.90
16976;DHT22;8604;48.148;-1.786;2023-12-20T12:18:32;10.20;99.90
16976;DHT22;8604;48.148;-1.786;2023-12-20T12:21:03;10.30;99.90
16976;DHT22;8604;48.148;-1.786;2023-12-20T12:23:41;10.30;99.90
16976;DHT22;8604;48.148;-1.786;2023-12-20T12:26:10;10.40;99.90
16976;DHT22;8604;48.148;-1.786;2023-12-20T12:28:40;10.40;99.90
16976;DHT22;8604;48.148;-1.786;2023-12-20T12:31:13;10.30;99.90
16976;DHT22;8604;48.148;-1.786;2023-12-20T12:33:43;10.40;99.90
16976;DHT22;8604;48.148;-1.786;2023-12-20T12:36:14;10.40;99.90
16976;DHT22;8604;48.148;-1.786;2023-12-20T12:38:44;10.50;99.90
16976;DHT22;8604;48.148;-1.786;2023-12-20T12:41:13;10.50;99.90
16976;DHT22;8604;48.148;-1.786;2023-12-20T12:43:42;10.50;99.90
16976;DHT22;8604;48.148;-1.786;2023-12-20T12:46:11;10.60;99.90
16976;DHT22;8604;48.148;-1.786;2023-12-20T12:48:40;10.70;99.90
16976;DHT22;8604;48.148;-1.786;2023-12-20T12:51:14;10.80;99.90
16976;DHT22;8604;48.148;-1.786;2023-12-20T12:53:43;10.80;99.90
16976;DHT22;8604;48.148;-1.786;2023-12-20T12:56:13;10.70;99.90
16976;DHT22;8604;48.148;-1.786;2023-12-20T12:58:42;10.70;99.90
16976;DHT22;8604;48.148;-1.786;2023-12-20T13:01:11;10.70;99.90
16976;DHT22;8604;48.148;-1.786;2023-12-20T13:03:40;10.70;99.90
16976;DHT22;8604;48.148;-1.786;2023-12-20T13:06:08;10.70;99.90
16976;DHT22;8604;48.148;-1.786;2023-12-20T13:08:39;10.70;99.90
16976;DHT22;8604;48.148;-1.786;2023-12-20T13:11:09;10.70;99.90
16976;DHT22;8604;48.148;-1.786;2023-12-20T13:13:37;10.70;99.90
16976;DHT22;8604;48.148;-1.786;2023-12-20T13:16:06;10.80;99.90
16976;DHT22;8604;48.148;-1.786;2023-12-20T13:18:35;10.80;99.90
16976;DHT22;8604;48.148;-1.786;2023-12-20T13:21:04;10.80;99.90
16976;DHT22;8604;48.148;-1.786;2023-12-20T13:23:32;10.90;99.90
16976;DHT22;8604;48.148;-1.786;2023-12-20T13:26:07;10.90;99.90
16976;DHT22;8604;48.148;-1.786;2023-12-20T13:28:35;10.80;99.90
16976;DHT22;8604;48.148;-1.786;2023-12-20T13:31:04;10.80;99.90
16976;DHT22;8604;48.148;-1.786;2023-12-20T13:33:33;10.80;99.90
16976;DHT22;8604;48.148;-1.786;2023-12-20T13:36:02;10.80;99.90
16976;DHT22;8604;48.148;-1.786;2023-12-20T13:38:34;10.80;99.90
16976;DHT22;8604;48.148;-1.786;2023-12-20T13:41:03;10.80;99.90
16976;DHT22;8604;48.148;-1.786;2023-12-20T13:43:35;10.80;99.90
16976;DHT22;8604;48.148;-1.786;2023-12-20T13:46:03;10.80;99.90
16976;DHT22;8604;48.148;-1.786;2023-12-20T13:48:32;10.80;99.90
16976;DHT22;8604;48.148;-1.786;2023-12-20T13:51:01;10.80;99.90
16976;DHT22;8604;48.148;-1.786;2023-12-20T13:53:30;10.80;99.90
16976;DHT22;8604;48.148;-1.786;2023-12-20T13:55:58;10.80;99.90
16976;DHT22;8604;48.148;-1.786;2023-12-20T13:58:27;10.80;99.90
16976;DHT22;8604;48.148;-1.786;2023-12-20T14:00:57;10.80;99.90
16976;DHT22;8604;48.148;-1.786;2023-12-20T14:03:26;10.90;99.90
16976;DHT22;8604;48.148;-1.786;2023-12-20T14:05:55;11.00;99.90
16976;DHT22;8604;48.148;-1.786;2023-12-20T14:08:24;11.10;99.90
16976;DHT22;8604;48.148;-1.786;2023-12-20T14:10:54;11.10;99.90
16976;DHT22;8604;48.148;-1.786;2023-12-20T14:13:22;11.20;99.90
16976;DHT22;8604;48.148;-1.786;2023-12-20T14:15:51;11.20;99.90
16976;DHT22;8604;48.148;-1.786;2023-12-20T14:18:23;11.20;99.90
16976;DHT22;8604;48.148;-1.786;2023-12-20T14:20:51;11.30;99.90
16976;DHT22;8604;48.148;-1.786;2023-12-20T14:23:21;11.20;99.90
16976;DHT22;8604;48.148;-1.786;2023-12-20T14:25:49;11.20;99.90
16976;DHT22;8604;48.148;-1.786;2023-12-20T14:28:19;11.20;99.90
16976;DHT22;8604;48.148;-1.786;2023-12-20T14:30:48;11.20;99.90
16976;DHT22;8604;48.148;-1.786;2023-12-20T14:33:17;11.20;99.90
16976;DHT22;8604;48.148;-1.786;2023-12-20T14:35:49;11.10;99.90
16976;DHT22;8604;48.148;-1.786;2023-12-20T14:38:18;11.10;99.90
16976;DHT22;8604;48.148;-1.786;2023-12-20T14:40:47;11.10;99.90
16976;DHT22;8604;48.148;-1.786;2023-12-20T14:43:15;11.10;99.90
16976;DHT22;8604;48.148;-1.786;2023-12-20T14:45:45;11.00;99.90
16976;DHT22;8604;48.148;-1.786;2023-12-20T14:48:13;11.00;99.90
16976;DHT22;8604;48.148;-1.786;2023-12-20T14:50:43;10.90;99.90
16976;DHT22;8604;48.148;-1.786;2023-12-20T15:02:54;10.90;99.90
16976;DHT22;8604;48.148;-1.786;2023-12-20T15:05:23;10.80;99.90
16976;DHT22;8604;48.148;-1.786;2023-12-20T15:08:20;10.80;99.90
16976;DHT22;8604;48.148;-1.786;2023-12-20T15:10:50;10.80;99.90
16976;DHT22;8604;48.148;-1.786;2023-12-20T15:13:26;10.80;99.90
16976;DHT22;8604;48.148;-1.786;2023-12-20T15:15:55;10.80;99.90
16976;DHT22;8604;48.148;-1.786;2023-12-20T15:18:25;10.80;99.90
16976;DHT22;8604;48.148;-1.786;2023-12-20T15:20:54;10.80;99.90
16976;DHT22;8604;48.148;-1.786;2023-12-20T15:23:26;10.70;99.90
16976;DHT22;8604;48.148;-1.786;2023-12-20T15:25:56;10.70;99.90
16976;DHT22;8604;48.148;-1.786;2023-12-20T15:28:24;10.70;99.90
16976;DHT22;8604;48.148;-1.786;2023-12-20T15:30:53;10.70;99.90
16976;DHT22;8604;48.148;-1.786;2023-12-20T15:33:21;10.70;99.90
16976;DHT22;8604;48.148;-1.786;2023-12-20T15:35:51;10.70;99.90
16976;DHT22;8604;48.148;-1.786;2023-12-20T15:38:20;10.70;99.90
16976;DHT22;8604;48.148;-1.786;2023-12-20T15:40:49;10.70;99.90
16976;DHT22;8604;48.148;-1.786;2023-12-20T15:43:18;10.70;99.90
16976;DHT22;8604;48.148;-1.786;2023-12-20T15:45:46;10.60;99.90
16976;DHT22;8604;48.148;-1.786;2023-12-20T15:48:15;10.60;99.90
16976;DHT22;8604;48.148;-1.786;2023-12-20T15:50:45;10.60;99.90
16976;DHT22;8604;48.148;-1.786;2023-12-20T15:53:15;10.60;99.90
16976;DHT22;8604;48.148;-1.786;2023-12-20T15:55:44;10.60;99.90
16976;DHT22;8604;48.148;-1.786;2023-12-20T15:58:12;10.60;99.90
16976;DHT22;8604;48.148;-1.786;2023-12-20T16:00:41;10.60;99.90
16976;DHT22;8604;48.148;-1.786;2023-12-20T16:03:09;10.60;99.90
16976;DHT22;8604;48.148;-1.786;2023-12-20T16:05:52;10.60;99.90
16976;DHT22;8604;48.148;-1.786;2023-12-20T16:08:22;10.60;99.90
16976;DHT22;8604;48.148;-1.786;2023-12-20T16:10:51;10.50;99.90
16976;DHT22;8604;48.148;-1.786;2023-12-20T16:13:20;10.50;99.90
16976;DHT22;8604;48.148;-1.786;2023-12-20T16:15:48;10.50;99.90
16976;DHT22;8604;48.148;-1.786;2023-12-20T16:18:25;10.50;99.90
16976;DHT22;8604;48.148;-1.786;2023-12-20T16:20:55;10.50;99.90
16976;DHT22;8604;48.148;-1.786;2023-12-20T16:23:26;10.50;99.90